Terminal Aerodrome Forecast
Issued by NWS

Current Version | Previous Version | Text Only | Print | Product List | Glossary Off
Versions: 1 2 3 4 5 6 7 8 9 10 11 12 13 14 15 16 17 18

426
FTUS41 KILN 171123
TAFLUK
TAF
KLUK 171123Z 1712/1812 13006KT P6SM OVC020
     FM171700 15008KT P6SM BKN250
     FM180300 18010KT P6SM VCSH OVC060 WS020/20040KT
     FM180600 19010G18KT 6SM -SHRA OVC045 WS020/21045KT
     FM180900 20014G24KT 6SM -SHRA OVC028 WS020/21045KT=

USA.gov is the U.S. government's official web portal to all federal, state and local government web resources and services.